sensor_id;sensor_type;location;lat;lon;timestamp;pressure;altitude;pressure_sealevel;temperature
76394;BMP180;65216;51.090;-115.352;2023-11-21T00:00:16;88122.00;;;22.70
76394;BMP180;65216;51.090;-115.352;2023-11-21T00:02:44;88116.20;;;22.70
76394;BMP180;65216;51.090;-115.352;2023-11-21T00:05:13;88109.00;;;22.70
76394;BMP180;65216;51.090;-115.352;2023-11-21T00:07:41;88112.20;;;22.70
76394;BMP180;65216;51.090;-115.352;2023-11-21T00:10:10;88128.60;;;22.62
76394;BMP180;65216;51.090;-115.352;2023-11-21T00:12:37;88108.80;;;22.68
76394;BMP180;65216;51.090;-115.352;2023-11-21T00:15:05;88100.60;;;22.70
76394;BMP180;65216;51.090;-115.352;2023-11-21T00:17:32;88111.20;;;22.68
76394;BMP180;65216;51.090;-115.352;2023-11-21T00:20:01;88098.40;;;22.66
76394;BMP180;65216;51.090;-115.352;2023-11-21T00:22:27;88106.80;;;22.64
76394;BMP180;65216;51.090;-115.352;2023-11-21T00:24:55;88122.20;;;22.70
76394;BMP180;65216;51.090;-115.352;2023-11-21T00:27:21;88119.20;;;22.70
76394;BMP180;65216;51.090;-115.352;2023-11-21T00:29:49;88101.60;;;22.70
76394;BMP180;65216;51.090;-115.352;2023-11-21T00:32:16;88109.40;;;22.70
76394;BMP180;65216;51.090;-115.352;2023-11-21T00:34:47;88104.60;;;22.70
76394;BMP180;65216;51.090;-115.352;2023-11-21T00:37:14;88100.20;;;22.70
76394;BMP180;65216;51.090;-115.352;2023-11-21T00:39:41;88103.20;;;22.70
76394;BMP180;65216;51.090;-115.352;2023-11-21T00:42:09;88090.80;;;22.70
76394;BMP180;65216;51.090;-115.352;2023-11-21T00:44:39;88090.80;;;22.70
76394;BMP180;65216;51.090;-115.352;2023-11-21T00:47:06;88076.60;;;22.70
76394;BMP180;65216;51.090;-115.352;2023-11-21T00:49:34;88090.60;;;22.70
76394;BMP180;65216;51.090;-115.352;2023-11-21T00:52:01;88082.20;;;22.70
76394;BMP180;65216;51.090;-115.352;2023-11-21T00:54:29;88081.80;;;22.70
76394;BMP180;65216;51.090;-115.352;2023-11-21T00:56:55;88091.80;;;22.70
76394;BMP180;65216;51.090;-115.352;2023-11-21T00:59:23;88099.20;;;22.70
76394;BMP180;65216;51.090;-115.352;2023-11-21T01:01:50;88106.00;;;22.70
76394;BMP180;65216;51.090;-115.352;2023-11-21T01:04:17;88116.20;;;22.66
76394;BMP180;65216;51.090;-115.352;2023-11-21T01:06:44;88104.80;;;22.70
76394;BMP180;65216;51.090;-115.352;2023-11-21T01:09:12;88124.80;;;22.70
76394;BMP180;65216;51.090;-115.352;2023-11-21T01:11:38;88113.00;;;22.70
76394;BMP180;65216;51.090;-115.352;2023-11-21T01:14:05;88122.00;;;22.70
76394;BMP180;65216;51.090;-115.352;2023-11-21T01:16:35;88118.80;;;22.70
76394;BMP180;65216;51.090;-115.352;2023-11-21T01:19:06;88115.40;;;22.70
76394;BMP180;65216;51.090;-115.352;2023-11-21T01:21:33;88115.80;;;22.68
76394;BMP180;65216;51.090;-115.352;2023-11-21T01:24:00;88140.20;;;22.68
76394;BMP180;65216;51.090;-115.352;2023-11-21T01:26:27;88145.80;;;22.64
76394;BMP180;65216;51.090;-115.352;2023-11-21T01:28:54;88150.00;;;22.68
76394;BMP180;65216;51.090;-115.352;2023-11-21T01:31:21;88139.00;;;22.62
76394;BMP180;65216;51.090;-115.352;2023-11-21T01:33:48;88154.20;;;22.70
76394;BMP180;65216;51.090;-115.352;2023-11-21T01:36:17;88147.80;;;22.70
76394;BMP180;65216;51.090;-115.352;2023-11-21T01:38:43;88158.60;;;22.68
76394;BMP180;65216;51.090;-115.352;2023-11-21T01:41:10;88146.20;;;22.60
76394;BMP180;65216;51.090;-115.352;2023-11-21T01:43:41;88152.40;;;22.60
76394;BMP180;65216;51.090;-115.352;2023-11-21T01:46:12;88170.40;;;22.60
76394;BMP180;65216;51.090;-115.352;2023-11-21T01:48:41;88168.00;;;22.60
76394;BMP180;65216;51.090;-115.352;2023-11-21T01:51:08;88166.60;;;22.60
76394;BMP180;65216;51.090;-115.352;2023-11-21T01:53:35;88162.00;;;22.60
76394;BMP180;65216;51.090;-115.352;2023-11-21T01:56:06;88168.00;;;22.60
76394;BMP180;65216;51.090;-115.352;2023-11-21T01:58:36;88153.00;;;22.60
76394;BMP180;65216;51.090;-115.352;2023-11-21T02:01:03;88144.80;;;22.60
76394;BMP180;65216;51.090;-115.352;2023-11-21T02:03:32;88142.20;;;22.60
76394;BMP180;65216;51.090;-115.352;2023-11-21T02:05:59;88135.80;;;22.60
76394;BMP180;65216;51.090;-115.352;2023-11-21T02:08:25;88146.20;;;22.60
76394;BMP180;65216;51.090;-115.352;2023-11-21T02:10:53;88137.00;;;22.60
76394;BMP180;65216;51.090;-115.352;2023-11-21T02:13:20;88145.40;;;22.60
76394;BMP180;65216;51.090;-115.352;2023-11-21T02:15:52;88123.60;;;22.60
76394;BMP180;65216;51.090;-115.352;2023-11-21T02:18:20;88130.40;;;22.56
76394;BMP180;65216;51.090;-115.352;2023-11-21T02:20:48;88149.40;;;22.60
76394;BMP180;65216;51.090;-115.352;2023-11-21T02:23:15;88145.80;;;22.50
76394;BMP180;65216;51.090;-115.352;2023-11-21T02:25:41;88145.00;;;22.50
76394;BMP180;65216;51.090;-115.352;2023-11-21T02:28:09;88155.60;;;22.54
76394;BMP180;65216;51.090;-115.352;2023-11-21T02:30:39;88137.80;;;22.60
76394;BMP180;65216;51.090;-115.352;2023-11-21T02:33:06;88158.60;;;22.54
76394;BMP180;65216;51.090;-115.352;2023-11-21T02:35:33;88159.40;;;22.56
76394;BMP180;65216;51.090;-115.352;2023-11-21T02:38:01;88166.80;;;22.52
76394;BMP180;65216;51.090;-115.352;2023-11-21T02:40:29;88179.00;;;22.50
76394;BMP180;65216;51.090;-115.352;2023-11-21T02:42:55;88171.80;;;22.50
76394;BMP180;65216;51.090;-115.352;2023-11-21T02:45:25;88179.40;;;22.50
76394;BMP180;65216;51.090;-115.352;2023-11-21T02:47:52;88169.20;;;22.50
76394;BMP180;65216;51.090;-115.352;2023-11-21T02:52:49;88181.80;;;22.42
76394;BMP180;65216;51.090;-115.352;2023-11-21T02:55:17;88180.60;;;22.44
76394;BMP180;65216;51.090;-115.352;2023-11-21T02:57:44;88171.00;;;22.42
76394;BMP180;65216;51.090;-115.352;2023-11-21T03:00:11;88178.60;;;22.46
76394;BMP180;65216;51.090;-115.352;2023-11-21T03:02:41;88169.00;;;22.40
76394;BMP180;65216;51.090;-115.352;2023-11-21T03:05:11;88181.40;;;22.40
76394;BMP180;65216;51.090;-115.352;2023-11-21T03:07:39;88186.80;;;22.40
76394;BMP180;65216;51.090;-115.352;2023-11-21T03:10:09;88192.40;;;22.40
76394;BMP180;65216;51.090;-115.352;2023-11-21T03:12:38;88181.60;;;22.42
76394;BMP180;65216;51.090;-115.352;2023-11-21T03:15:09;88185.20;;;22.44
76394;BMP180;65216;51.090;-115.352;2023-11-21T03:17:36;88182.20;;;22.40
76394;BMP180;65216;51.090;-115.352;2023-11-21T03:20:04;88191.20;;;22.40
76394;BMP180;65216;51.090;-115.352;2023-11-21T03:22:33;88191.80;;;22.40
76394;BMP180;65216;51.090;-115.352;2023-11-21T03:25:00;88166.20;;;22.40
76394;BMP180;65216;51.090;-115.352;2023-11-21T03:27:27;88183.00;;;22.40
76394;BMP180;65216;51.090;-115.352;2023-11-21T03:29:54;88192.60;;;22.40
76394;BMP180;65216;51.090;-115.352;2023-11-21T03:32:21;88184.20;;;22.40
76394;BMP180;65216;51.090;-115.352;2023-11-21T03:34:57;88200.40;;;22.40
76394;BMP180;65216;51.090;-115.352;2023-11-21T03:37:24;88197.00;;;22.40
76394;BMP180;65216;51.090;-115.352;2023-11-21T03:39:55;88202.20;;;22.40
76394;BMP180;65216;51.090;-115.352;2023-11-21T03:42:22;88199.60;;;22.40
76394;BMP180;65216;51.090;-115.352;2023-11-21T03:44:49;88191.40;;;22.40
76394;BMP180;65216;51.090;-115.352;2023-11-21T03:47:15;88198.40;;;22.40
76394;BMP180;65216;51.090;-115.352;2023-11-21T03:49:42;88188.00;;;22.40
76394;BMP180;65216;51.090;-115.352;2023-11-21T03:52:09;88201.60;;;22.40
76394;BMP180;65216;51.090;-115.352;2023-11-21T03:54:36;88207.00;;;22.40
76394;BMP180;65216;51.090;-115.352;2023-11-21T03:57:03;88205.60;;;22.40
76394;BMP180;65216;51.090;-115.352;2023-11-21T03:59:30;88199.60;;;22.32
76394;BMP180;65216;51.090;-115.352;2023-11-21T04:01:57;88198.40;;;22.34
76394;BMP180;65216;51.090;-115.352;2023-11-21T04:04:24;88213.20;;;22.30
76394;BMP180;65216;51.090;-115.352;2023-11-21T04:06:51;88205.20;;;22.30
76394;BMP180;65216;51.090;-115.352;2023-11-21T04:09:20;88203.20;;;22.30
76394;BMP180;65216;51.090;-115.352;2023-11-21T04:11:47;88198.20;;;22.30
76394;BMP180;65216;51.090;-115.352;2023-11-21T04:14:14;88191.00;;;22.30
76394;BMP180;65216;51.090;-115.352;2023-11-21T04:16:41;88193.60;;;22.30
76394;BMP180;65216;51.090;-115.352;2023-11-21T04:19:08;88190.80;;;22.30
76394;BMP180;65216;51.090;-115.352;2023-11-21T04:21:41;88171.80;;;22.30
76394;BMP180;65216;51.090;-115.352;2023-11-21T04:24:08;88177.80;;;22.28
76394;BMP180;65216;51.090;-115.352;2023-11-21T04:26:36;88165.80;;;22.20
76394;BMP180;65216;51.090;-115.352;2023-11-21T04:29:03;88169.20;;;22.20
76394;BMP180;65216;51.090;-115.352;2023-11-21T04:31:31;88175.00;;;22.20
76394;BMP180;65216;51.090;-115.352;2023-11-21T04:34:00;88171.60;;;22.20
76394;BMP180;65216;51.090;-115.352;2023-11-21T04:36:27;88170.20;;;22.20
76394;BMP180;65216;51.090;-115.352;2023-11-21T04:38:54;88147.40;;;22.20
76394;BMP180;65216;51.090;-115.352;2023-11-21T04:41:20;88160.00;;;22.20
76394;BMP180;65216;51.090;-115.352;2023-11-21T04:43:47;88156.80;;;22.20
76394;BMP180;65216;51.090;-115.352;2023-11-21T04:46:15;88162.20;;;22.20
76394;BMP180;65216;51.090;-115.352;2023-11-21T04:48:42;88166.20;;;22.18
76394;BMP180;65216;51.090;-115.352;2023-11-21T04:51:11;88150.00;;;22.10
76394;BMP180;65216;51.090;-115.352;2023-11-21T04:53:39;88138.60;;;22.10
76394;BMP180;65216;51.090;-115.352;2023-11-21T04:56:06;88125.80;;;22.10
76394;BMP180;65216;51.090;-115.352;2023-11-21T04:58:33;88125.60;;;22.10
76394;BMP180;65216;51.090;-115.352;2023-11-21T05:00:59;88117.80;;;22.10
76394;BMP180;65216;51.090;-115.352;2023-11-21T05:03:27;88122.20;;;22.10
76394;BMP180;65216;51.090;-115.352;2023-11-21T05:05:56;88131.40;;;22.10
76394;BMP180;65216;51.090;-115.352;2023-11-21T05:08:24;88133.00;;;22.10
76394;BMP180;65216;51.090;-115.352;2023-11-21T05:10:53;88141.40;;;22.10
76394;BMP180;65216;51.090;-115.352;2023-11-21T05:13:23;88132.00;;;22.10
76394;BMP180;65216;51.090;-115.352;2023-11-21T05:15:56;88133.40;;;22.10
76394;BMP180;65216;51.090;-115.352;2023-11-21T05:18:26;88138.00;;;22.10
76394;BMP180;65216;51.090;-115.352;2023-11-21T05:20:53;88117.20;;;22.06
76394;BMP180;65216;51.090;-115.352;2023-11-21T05:23:20;88118.60;;;22.10
76394;BMP180;65216;51.090;-115.352;2023-11-21T05:25:47;88105.60;;;22.08
76394;BMP180;65216;51.090;-115.352;2023-11-21T05:28:15;88099.40;;;22.06
76394;BMP180;65216;51.090;-115.352;2023-11-21T05:30:42;88097.00;;;22.00
76394;BMP180;65216;51.090;-115.352;2023-11-21T05:33:09;88109.20;;;22.00
76394;BMP180;65216;51.090;-115.352;2023-11-21T05:35:36;88095.60;;;22.00
76394;BMP180;65216;51.090;-115.352;2023-11-21T05:38:03;88080.60;;;22.00
76394;BMP180;65216;51.090;-115.352;2023-11-21T05:40:31;88102.00;;;22.00
76394;BMP180;65216;51.090;-115.352;2023-11-21T05:42:58;88089.40;;;22.00
76394;BMP180;65216;51.090;-115.352;2023-11-21T05:45:25;88089.00;;;22.00
76394;BMP180;65216;51.090;-115.352;2023-11-21T05:47:52;88104.00;;;22.00
76394;BMP180;65216;51.090;-115.352;2023-11-21T05:50:21;88121.60;;;22.00
76394;BMP180;65216;51.090;-115.352;2023-11-21T05:52:52;88113.40;;;22.00
76394;BMP180;65216;51.090;-115.352;2023-11-21T05:55:18;88120.80;;;22.00
76394;BMP180;65216;51.090;-115.352;2023-11-21T05:57:49;88125.80;;;22.00
76394;BMP180;65216;51.090;-115.352;2023-11-21T06:00:17;88131.20;;;22.00
76394;BMP180;65216;51.090;-115.352;2023-11-21T06:02:50;88126.00;;;22.00
76394;BMP180;65216;51.090;-115.352;2023-11-21T06:05:23;88124.20;;;22.00
76394;BMP180;65216;51.090;-115.352;2023-11-21T06:07:55;88126.60;;;22.00
76394;BMP180;65216;51.090;-115.352;2023-11-21T06:10:25;88131.20;;;22.00
76394;BMP180;65216;51.090;-115.352;2023-11-21T06:12:53;88133.60;;;22.00
76394;BMP180;65216;51.090;-115.352;2023-11-21T06:15:20;88130.20;;;22.00
76394;BMP180;65216;51.090;-115.352;2023-11-21T06:17:49;88132.40;;;22.00
76394;BMP180;65216;51.090;-115.352;2023-11-21T06:20:19;88119.20;;;22.00
76394;BMP180;65216;51.090;-115.352;2023-11-21T06:22:52;88121.60;;;22.00
76394;BMP180;65216;51.090;-115.352;2023-11-21T06:25:23;88119.40;;;22.00
76394;BMP180;65216;51.090;-115.352;2023-11-21T06:27:51;88120.60;;;22.00
76394;BMP180;65216;51.090;-115.352;2023-11-21T06:30:20;88122.00;;;22.00
76394;BMP180;65216;51.090;-115.352;2023-11-21T06:32:48;88119.00;;;22.00
76394;BMP180;65216;51.090;-115.352;2023-11-21T06:35:15;88116.40;;;22.00
76394;BMP180;65216;51.090;-115.352;2023-11-21T06:37:42;88123.20;;;22.02
76394;BMP180;65216;51.090;-115.352;2023-11-21T06:40:15;88128.20;;;22.02
76394;BMP180;65216;51.090;-115.352;2023-11-21T06:42:44;88123.80;;;22.00
76394;BMP180;65216;51.090;-115.352;2023-11-21T06:45:13;88118.40;;;22.00
76394;BMP180;65216;51.090;-115.352;2023-11-21T06:47:41;88119.40;;;22.02
76394;BMP180;65216;51.090;-115.352;2023-11-21T06:50:08;88113.20;;;22.08
76394;BMP180;65216;51.090;-115.352;2023-11-21T06:52:35;88109.40;;;22.06
76394;BMP180;65216;51.090;-115.352;2023-11-21T06:55:02;88109.60;;;22.04
76394;BMP180;65216;51.090;-115.352;2023-11-21T06:57:29;88101.20;;;22.00
76394;BMP180;65216;51.090;-115.352;2023-11-21T06:59:56;88095.20;;;22.04
76394;BMP180;65216;51.090;-115.352;2023-11-21T07:02:26;88098.20;;;22.06
76394;BMP180;65216;51.090;-115.352;2023-11-21T07:04:54;88097.20;;;22.10
76394;BMP180;65216;51.090;-115.352;2023-11-21T07:07:21;88101.40;;;22.10
76394;BMP180;65216;51.090;-115.352;2023-11-21T07:09:47;88105.40;;;22.10
76394;BMP180;65216;51.090;-115.352;2023-11-21T07:12:15;88112.00;;;22.10
76394;BMP180;65216;51.090;-115.352;2023-11-21T07:14:42;88112.60;;;22.10
76394;BMP180;65216;51.090;-115.352;2023-11-21T07:17:12;88116.00;;;22.10
76394;BMP180;65216;51.090;-115.352;2023-11-21T07:19:39;88115.20;;;22.10
76394;BMP180;65216;51.090;-115.352;2023-11-21T07:22:10;88100.40;;;22.10
76394;BMP180;65216;51.090;-115.352;2023-11-21T07:24:37;88090.20;;;22.10
76394;BMP180;65216;51.090;-115.352;2023-11-21T07:27:04;88090.40;;;22.10
76394;BMP180;65216;51.090;-115.352;2023-11-21T07:29:31;88080.40;;;22.10
76394;BMP180;65216;51.090;-115.352;2023-11-21T07:31:59;88087.00;;;22.10
76394;BMP180;65216;51.090;-115.352;2023-11-21T07:34:26;88084.60;;;22.10
76394;BMP180;65216;51.090;-115.352;2023-11-21T07:36:53;88066.20;;;22.10
76394;BMP180;65216;51.090;-115.352;2023-11-21T07:39:20;88068.20;;;22.10
76394;BMP180;65216;51.090;-115.352;2023-11-21T07:41:47;88065.00;;;22.10
76394;BMP180;65216;51.090;-115.352;2023-11-21T07:44:17;88068.20;;;22.10
76394;BMP180;65216;51.090;-115.352;2023-11-21T07:46:44;88070.00;;;22.10
76394;BMP180;65216;51.090;-115.352;2023-11-21T07:49:11;88064.80;;;22.10
76394;BMP180;65216;51.090;-115.352;2023-11-21T07:51:44;88060.40;;;22.10
76394;BMP180;65216;51.090;-115.352;2023-11-21T07:54:12;88062.20;;;22.10
76394;BMP180;65216;51.090;-115.352;2023-11-21T07:56:38;88063.60;;;22.10
76394;BMP180;65216;51.090;-115.352;2023-11-21T07:59:05;88057.80;;;22.10
76394;BMP180;65216;51.090;-115.352;2023-11-21T08:01:32;88059.00;;;22.10
76394;BMP180;65216;51.090;-115.352;2023-11-21T08:04:01;88062.80;;;22.10
76394;BMP180;65216;51.090;-115.352;2023-11-21T08:06:30;88058.20;;;22.10
76394;BMP180;65216;51.090;-115.352;2023-11-21T08:08:58;88066.40;;;22.10
76394;BMP180;65216;51.090;-115.352;2023-11-21T08:11:25;88050.20;;;22.10
76394;BMP180;65216;51.090;-115.352;2023-11-21T08:13:55;88053.00;;;22.10
76394;BMP180;65216;51.090;-115.352;2023-11-21T08:16:25;88052.40;;;22.10
76394;BMP180;65216;51.090;-115.352;2023-11-21T08:18:53;88049.20;;;22.10
76394;BMP180;65216;51.090;-115.352;2023-11-21T08:21:22;88051.80;;;22.10
76394;BMP180;65216;51.090;-115.352;2023-11-21T08:23:51;88049.00;;;22.10
76394;BMP180;65216;51.090;-115.352;2023-11-21T08:26:22;88044.40;;;22.10
76394;BMP180;65216;51.090;-115.352;2023-11-21T08:28:49;88048.40;;;22.10
76394;BMP180;65216;51.090;-115.352;2023-11-21T08:31:28;88031.80;;;22.10
76394;BMP180;65216;51.090;-115.352;2023-11-21T08:33:55;88037.60;;;22.10
76394;BMP180;65216;51.090;-115.352;2023-11-21T08:36:22;88033.00;;;22.10
76394;BMP180;65216;51.090;-115.352;2023-11-21T08:38:51;88030.80;;;22.10
76394;BMP180;65216;51.090;-115.352;2023-11-21T08:41:21;88020.80;;;22.10
76394;BMP180;65216;51.090;-115.352;2023-11-21T08:43:51;88026.80;;;22.10
76394;BMP180;65216;51.090;-115.352;2023-11-21T08:46:19;88012.60;;;22.10
76394;BMP180;65216;51.090;-115.352;2023-11-21T08:48:46;88012.80;;;22.10
76394;BMP180;65216;51.090;-115.352;2023-11-21T08:51:13;88007.60;;;22.10
76394;BMP180;65216;51.090;-115.352;2023-11-21T08:53:43;88011.00;;;22.10
76394;BMP180;65216;51.090;-115.352;2023-11-21T08:56:13;88008.80;;;22.10
76394;BMP180;65216;51.090;-115.352;2023-11-21T08:58:40;88004.60;;;22.10
76394;BMP180;65216;51.090;-115.352;2023-11-21T09:01:07;88005.20;;;22.10
76394;BMP180;65216;51.090;-115.352;2023-11-21T09:03:35;88000.00;;;22.10
76394;BMP180;65216;51.090;-115.352;2023-11-21T09:06:01;87995.20;;;22.10
76394;BMP180;65216;51.090;-115.352;2023-11-21T09:08:32;87979.00;;;22.10
76394;BMP180;65216;51.090;-115.352;2023-11-21T09:10:59;87983.40;;;22.10
76394;BMP180;65216;51.090;-115.352;2023-11-21T09:13:25;87975.60;;;22.10
76394;BMP180;65216;51.090;-115.352;2023-11-21T09:15:52;87969.60;;;22.10
76394;BMP180;65216;51.090;-115.352;2023-11-21T09:18:19;87971.80;;;22.10
76394;BMP180;65216;51.090;-115.352;2023-11-21T09:20:46;87974.00;;;22.10
76394;BMP180;65216;51.090;-115.352;2023-11-21T09:23:12;87961.60;;;22.10
76394;BMP180;65216;51.090;-115.352;2023-11-21T09:25:39;87960.20;;;22.10
76394;BMP180;65216;51.090;-115.352;2023-11-21T09:28:06;87963.00;;;22.10
76394;BMP180;65216;51.090;-115.352;2023-11-21T09:30:36;87956.20;;;22.10
76394;BMP180;65216;51.090;-115.352;2023-11-21T09:33:04;87958.40;;;22.10
76394;BMP180;65216;51.090;-115.352;2023-11-21T09:35:39;87950.40;;;22.10
76394;BMP180;65216;51.090;-115.352;2023-11-21T09:38:05;87944.80;;;22.10
76394;BMP180;65216;51.090;-115.352;2023-11-21T09:40:38;87942.60;;;22.10
76394;BMP180;65216;51.090;-115.352;2023-11-21T09:43:09;87942.20;;;22.10
76394;BMP180;65216;51.090;-115.352;2023-11-21T09:45:47;87945.20;;;22.10
76394;BMP180;65216;51.090;-115.352;2023-11-21T09:48:16;87938.00;;;22.10
76394;BMP180;65216;51.090;-115.352;2023-11-21T09:50:47;87928.60;;;22.10
76394;BMP180;65216;51.090;-115.352;2023-11-21T09:53:20;87932.00;;;22.10
76394;BMP180;65216;51.090;-115.352;2023-11-21T09:55:51;87928.60;;;22.10
76394;BMP180;65216;51.090;-115.352;2023-11-21T09:58:19;87927.60;;;22.10
76394;BMP180;65216;51.090;-115.352;2023-11-21T10:00:50;87932.80;;;22.10
76394;BMP180;65216;51.090;-115.352;2023-11-21T10:03:21;87928.00;;;22.10
76394;BMP180;65216;51.090;-115.352;2023-11-21T10:05:50;87929.20;;;22.10
76394;BMP180;65216;51.090;-115.352;2023-11-21T10:08:19;87928.00;;;22.10
76394;BMP180;65216;51.090;-115.352;2023-11-21T10:10:52;87930.20;;;22.08
76394;BMP180;65216;51.090;-115.352;2023-11-21T10:13:20;87920.20;;;22.10
76394;BMP180;65216;51.090;-115.352;2023-11-21T10:15:51;87916.00;;;22.10
76394;BMP180;65216;51.090;-115.352;2023-11-21T10:18:23;87904.00;;;22.10
76394;BMP180;65216;51.090;-115.352;2023-11-21T10:20:51;87905.40;;;22.10
76394;BMP180;65216;51.090;-115.352;2023-11-21T10:23:23;87906.60;;;22.10
76394;BMP180;65216;51.090;-115.352;2023-11-21T10:25:52;87895.00;;;22.10
76394;BMP180;65216;51.090;-115.352;2023-11-21T10:28:22;87894.20;;;22.10
76394;BMP180;65216;51.090;-115.352;2023-11-21T10:30:49;87895.20;;;22.10
76394;BMP180;65216;51.090;-115.352;2023-11-21T10:33:16;87882.00;;;22.10
76394;BMP180;65216;51.090;-115.352;2023-11-21T10:35:48;87886.60;;;22.10
76394;BMP180;65216;51.090;-115.352;2023-11-21T10:38:21;87885.00;;;22.10
76394;BMP180;65216;51.090;-115.352;2023-11-21T10:40:51;87876.80;;;22.10
76394;BMP180;65216;51.090;-115.352;2023-11-21T10:43:18;87882.40;;;22.10
76394;BMP180;65216;51.090;-115.352;2023-11-21T10:45:45;87876.00;;;22.10
76394;BMP180;65216;51.090;-115.352;2023-11-21T10:48:17;87880.00;;;22.10
76394;BMP180;65216;51.090;-115.352;2023-11-21T10:50:49;87866.20;;;22.10
76394;BMP180;65216;51.090;-115.352;2023-11-21T10:53:18;87875.20;;;22.10
76394;BMP180;65216;51.090;-115.352;2023-11-21T10:55:47;87864.20;;;22.10
76394;BMP180;65216;51.090;-115.352;2023-11-21T10:58:14;87870.60;;;22.10
76394;BMP180;65216;51.090;-115.352;2023-11-21T11:00:41;87856.40;;;22.10
76394;BMP180;65216;51.090;-115.352;2023-11-21T11:03:12;87858.00;;;22.10
76394;BMP180;65216;51.090;-115.352;2023-11-21T11:05:44;87855.20;;;22.10
76394;BMP180;65216;51.090;-115.352;2023-11-21T11:08:22;87844.20;;;22.08
76394;BMP180;65216;51.090;-115.352;2023-11-21T11:10:53;87842.40;;;22.02
76394;BMP180;65216;51.090;-115.352;2023-11-21T11:13:24;87823.00;;;22.00
76394;BMP180;65216;51.090;-115.352;2023-11-21T11:15:59;87820.00;;;22.00
76394;BMP180;65216;51.090;-115.352;2023-11-21T11:18:31;87810.20;;;22.00
76394;BMP180;65216;51.090;-115.352;2023-11-21T11:21:23;87803.60;;;22.00
76394;BMP180;65216;51.090;-115.352;2023-11-21T11:27:14;87795.40;;;22.00
76394;BMP180;65216;51.090;-115.352;2023-11-21T11:29:59;87804.40;;;22.00
76394;BMP180;65216;51.090;-115.352;2023-11-21T11:38:01;87785.20;;;22.00
76394;BMP180;65216;51.090;-115.352;2023-11-21T11:40:46;87778.20;;;22.00
76394;BMP180;65216;51.090;-115.352;2023-11-21T11:43:13;87767.80;;;22.00
76394;BMP180;65216;51.090;-115.352;2023-11-21T11:45:40;87751.40;;;22.00
76394;BMP180;65216;51.090;-115.352;2023-11-21T11:48:11;87754.20;;;22.00
76394;BMP180;65216;51.090;-115.352;2023-11-21T11:51:07;87757.20;;;22.00
76394;BMP180;65216;51.090;-115.352;2023-11-21T11:53:40;87748.80;;;22.00
76394;BMP180;65216;51.090;-115.352;2023-11-21T11:59:04;87742.40;;;22.00
76394;BMP180;65216;51.090;-115.352;2023-11-21T12:01:34;87739.60;;;22.00
76394;BMP180;65216;51.090;-115.352;2023-11-21T12:07:05;87722.60;;;22.00
76394;BMP180;65216;51.090;-115.352;2023-11-21T12:09:33;87718.20;;;22.00
76394;BMP180;65216;51.090;-115.352;2023-11-21T12:12:00;87721.40;;;22.00
76394;BMP180;65216;51.090;-115.352;2023-11-21T12:14:28;87718.60;;;22.00
76394;BMP180;65216;51.090;-115.352;2023-11-21T12:16:57;87708.20;;;22.00
76394;BMP180;65216;51.090;-115.352;2023-11-21T12:19:24;87697.20;;;22.00
76394;BMP180;65216;51.090;-115.352;2023-11-21T12:21:53;87689.40;;;22.00
76394;BMP180;65216;51.090;-115.352;2023-11-21T12:24:22;87687.60;;;22.00
76394;BMP180;65216;51.090;-115.352;2023-11-21T12:26:50;87676.00;;;22.00
76394;BMP180;65216;51.090;-115.352;2023-11-21T12:29:17;87662.20;;;22.00
76394;BMP180;65216;51.090;-115.352;2023-11-21T12:31:45;87666.00;;;22.00
76394;BMP180;65216;51.090;-115.352;2023-11-21T12:34:12;87660.40;;;22.00
76394;BMP180;65216;51.090;-115.352;2023-11-21T12:36:39;87653.80;;;22.00
76394;BMP180;65216;51.090;-115.352;2023-11-21T12:39:06;87640.00;;;22.00
76394;BMP180;65216;51.090;-115.352;2023-11-21T12:41:35;87644.20;;;21.98
76394;BMP180;65216;51.090;-115.352;2023-11-21T12:44:04;87622.40;;;21.92
76394;BMP180;65216;51.090;-115.352;2023-11-21T12:46:42;87615.80;;;21.90
76394;BMP180;65216;51.090;-115.352;2023-11-21T12:49:12;87620.00;;;21.90
76394;BMP180;65216;51.090;-115.352;2023-11-21T12:51:46;87618.20;;;21.90
76394;BMP180;65216;51.090;-115.352;2023-11-21T12:54:15;87608.00;;;21.90
76394;BMP180;65216;51.090;-115.352;2023-11-21T12:56:46;87607.00;;;21.90
76394;BMP180;65216;51.090;-115.352;2023-11-21T12:59:16;87617.60;;;21.90
76394;BMP180;65216;51.090;-115.352;2023-11-21T13:01:44;87588.20;;;21.90
76394;BMP180;65216;51.090;-115.352;2023-11-21T13:04:12;87610.80;;;21.90
76394;BMP180;65216;51.090;-115.352;2023-11-21T13:06:39;87607.80;;;21.88
76394;BMP180;65216;51.090;-115.352;2023-11-21T13:09:09;87606.20;;;21.90
76394;BMP180;65216;51.090;-115.352;2023-11-21T13:11:39;87607.80;;;21.90
76394;BMP180;65216;51.090;-115.352;2023-11-21T13:14:07;87601.60;;;21.84
76394;BMP180;65216;51.090;-115.352;2023-11-21T13:16:38;87594.80;;;21.80
76394;BMP180;65216;51.090;-115.352;2023-11-21T13:19:08;87606.40;;;21.84
76394;BMP180;65216;51.090;-115.352;2023-11-21T13:21:35;87588.00;;;21.82
76394;BMP180;65216;51.090;-115.352;2023-11-21T13:24:02;87592.80;;;21.82
76394;BMP180;65216;51.090;-115.352;2023-11-21T13:26:29;87587.20;;;21.80
76394;BMP180;65216;51.090;-115.352;2023-11-21T13:28:57;87581.20;;;21.80
76394;BMP180;65216;51.090;-115.352;2023-11-21T13:31:28;87571.00;;;21.80
76394;BMP180;65216;51.090;-115.352;2023-11-21T13:33:58;87572.60;;;21.80
76394;BMP180;65216;51.090;-115.352;2023-11-21T13:36:31;87566.20;;;21.80
76394;BMP180;65216;51.090;-115.352;2023-11-21T13:38:59;87556.80;;;21.80
76394;BMP180;65216;51.090;-115.352;2023-11-21T13:41:34;87537.20;;;21.80
76394;BMP180;65216;51.090;-115.352;2023-11-21T13:44:00;87541.40;;;21.80
76394;BMP180;65216;51.090;-115.352;2023-11-21T13:46:42;87538.20;;;21.80
76394;BMP180;65216;51.090;-115.352;2023-11-21T13:49:10;87532.20;;;21.80
76394;BMP180;65216;51.090;-115.352;2023-11-21T13:51:37;87542.20;;;21.80
76394;BMP180;65216;51.090;-115.352;2023-11-21T13:54:10;87527.00;;;21.80
76394;BMP180;65216;51.090;-115.352;2023-11-21T13:56:38;87517.20;;;21.80